South Acworth, New Hampshire
Current Conditions -  °F | °C
As of 7:54 PM on Sunday 23 Nov 2014 (Local Time) from KVSF Reporting Station
Overcast Overcast  
Wind Chill: 40°   Ceiling: 8500
Heat Index: 40°   Visibility: 9mi
Dew Point: 38°   Wind: 0mph
Humidity: 93%   Direction: NA
Pressure: 30.08"   Gusts: NA
Location:  43.19°N, 72.29°W
Report Text: KVSF 240054Z AUTO 00000KT 9SM SCT050 OVC085 04/03 A3008 RMK AO2 SLP193 T00440033
Loading
Personal Weather Stations






























Interactive Weather Map New forecast layout! Learn more

10-Day Weather Forecast

Advertisements
Track Severe Weather on mobile